Maxwell Air Force Base
KMXF : now visible

Airfield :











YOU CAN JOIN US ON...

 
LOGIN :

Register | Disclaimer

   EN    FR    IT 

 









Legend :    VFR   Marginal VFR   IFR   Intensive IFR   Very Intensive IFR
Visi :
Ceiling :
>= 8 km
>= 3000ft
5 to 8 km
1000 to 3000 ft
1500m to 5 km
500 to 1000 ft
800 to 1500m
200 to 500 ft
< 800m
< 200 ft
Symbols :   Thunderstorms  Fog  Heavy snow  Heavy precipitations  Wind > 20 kt






- Airport Elevation : 171 ft


KMXF - Maxwell Air Force Base

CURRENT METAR :
  • 121811Z AUTO 10009KT 10SM OVC026 10/M03 A3035 RMK AO2 DZE11 PRESFR SLP281

EXPIRED METARs :
  • 121756Z AUTO 09011KT 10SM -DZ OVC028 10/M02 A3037 RMK AO2 DZB52 SLP288 P0000 60000 T01031017 10105 20045 57024
  • 121752Z AUTO 10010KT 10SM -DZ OVC028 11/M02 A3037 RMK AO2 DZB52 SLP288
  • 121656Z AUTO 09010KT 10SM OVC033 10/M03 A3040 RMK AO2 SLP298 T00981032
  • 121556Z AUTO 10011KT 10SM OVC036 09/M03 A3042 RMK AO2 SLP305 T00911035

TAF TAF KMXF
Valid from the 12 at 12:00 until the 13 at 18:00 UTC


121200Z 1212/1318 03006KT 9999 SCT250 WS020/11044KT QNH3042INS
BECMG 1215/1216 10020G25KT 9999 BKN040 OVC200 QNH3036INS
BECMG 1219/1220 10012G18KT 8000 -SHRA BKN026 QNH3032INS
BECMG 1223/1224 09006KT 9000 -RA SCT005 OVC010 QNH3025INS
BECMG 1309/1310 09006KT 8000 -RA OVC002 QNH3003INS
BECMG 1315/1316 09006KT 8000 -RA OVC010 QNH2994INS TX12/1218Z TN04/1212Z



MET'MAP, your aeronautical weather chart ! - Copyright ORBIFLY December 2007 - Disclaimer

ORBIFLY MET'MAP TEAM :

Programming & Development : Alexandra Zaïnal
Concept & original design : Baudouin d'Aumeries
Assistance for programming : Marc-Olivier Méhu
Technical & hardware support : Manuel Goepfert

Contact : metmap@orbifly.com




SOURCES & CREDITS :

   NOAA       Earth
Advisory